Dupage Airport
KDPA : now visible

Airfield :











YOU CAN JOIN US ON...

 
LOGIN :

Register | Disclaimer

   EN    FR    IT 

 









Legend :    VFR   Marginal VFR   IFR   Intensive IFR   Very Intensive IFR
Visi :
Ceiling :
>= 8 km
>= 3000ft
5 to 8 km
1000 to 3000 ft
1500m to 5 km
500 to 1000 ft
800 to 1500m
200 to 500 ft
< 800m
< 200 ft
Symbols :   Thunderstorms  Fog  Heavy snow  Heavy precipitations  Wind > 20 kt






- Airport Elevation : 759 ft


KDPA - Dupage

CURRENT METAR :
  • 200252Z 30013G20KT 10SM CLR 08/M03 A3011 RMK AO2 SLP200 T00781033 53017 $

EXPIRED METARs :
  • 200152Z 29012G19KT 10SM CLR 09/M02 A3009 RMK AO2 SLP191 T00941022 $
  • 200052Z 27015G21KT 10SM CLR 10/M03 A3006 RMK AO2 PK WND 26027/0013 SLP183 T01001028 $
  • 192352Z 26016G25KT 10SM CLR 11/M03 A3006 RMK AO2 PK WND 26032/2258 SLP183 T01111033 10133 20111 56002 $
  • 192252Z 27022G31KT 10SM CLR 12/M03 A3007 RMK AO2 PK WND 29035/2223 SLP186 T01221033 $
  • 192152Z 25019G29KT 10SM CLR 13/M02 A3006 RMK AO2 PK WND 28033/2139 SLP181 T01331022 $

TAF KDPA
Valid from the 20 at 00:00 until the 21 at 00:00 UTC


192320Z 2000/2024 28018G30KT P6SM FEW050 SCT150
FM200100 30014G24KT P6SM FEW040 SCT200
FM201500 29012KT P6SM BKN050
KZAU FIR / North America



MET'MAP, your aeronautical weather chart ! - Copyright ORBIFLY December 2007 - Disclaimer

ORBIFLY MET'MAP TEAM :

Programming & Development : Alexandra Zaïnal
Original concept : Baudouin d'Aumeries
Technical & hardware support : Manuel Goepfert
Assistance : Marc-Olivier Méhu




SOURCES & CREDITS :

   NOAA       Earth
Advisory